createdAt,value
2017-11-24T00:00:42.849Z,1008.25
2017-11-24T00:01:52.050Z,1008.25
2017-11-24T00:03:01.161Z,1008.25
2017-11-24T00:04:09.989Z,1008.24
2017-11-24T00:05:18.823Z,1008.24
2017-11-24T00:06:27.928Z,1008.24
2017-11-24T00:07:36.857Z,1008.2
2017-11-24T00:08:45.686Z,1008.1
2017-11-24T00:09:54.516Z,1008.11
2017-11-24T00:11:03.345Z,1008.05
2017-11-24T00:12:12.456Z,1008.14
2017-11-24T00:13:21.835Z,1008.15
2017-11-24T00:14:30.664Z,1008.22
2017-11-24T00:15:39.493Z,1008.2
2017-11-24T00:16:48.324Z,1008.18
2017-11-24T00:17:57.153Z,1008.23
2017-11-24T00:19:05.984Z,1008.22
2017-11-24T00:20:14.809Z,1008.18
2017-11-24T00:21:23.917Z,1008.16
2017-11-24T00:22:32.745Z,1008.13
2017-11-24T00:23:41.573Z,1008.11
2017-11-24T00:24:50.554Z,1008.1
2017-11-24T00:25:59.384Z,1008.04
2017-11-24T00:27:08.211Z,1008.05
2017-11-24T00:28:17.038Z,1008
2017-11-24T00:29:25.867Z,1008.09
2017-11-24T00:30:34.695Z,1008.07
2017-11-24T00:31:43.522Z,1008.07
2017-11-24T00:32:52.355Z,1008.06
2017-11-24T00:34:01.553Z,1008.09
2017-11-24T00:35:10.380Z,1008.14
2017-11-24T00:36:19.308Z,1008.15
2017-11-24T00:37:28.422Z,1008.23
2017-11-24T00:38:37.244Z,1008.25
2017-11-24T00:39:46.074Z,1008.21
2017-11-24T00:40:55.193Z,1008.19
2017-11-24T00:42:04.328Z,1008.19
2017-11-24T00:43:13.149Z,1008.16
2017-11-24T00:44:21.977Z,1008.21
2017-11-24T00:45:30.807Z,1008.27
2017-11-24T00:46:39.912Z,1008.32
2017-11-24T00:47:48.889Z,1008.37
2017-11-24T00:48:57.717Z,1008.45
2017-11-24T00:50:06.545Z,1008.5
2017-11-24T00:51:15.374Z,1008.54
2017-11-24T00:52:24.200Z,1008.49
2017-11-24T00:53:33.029Z,1008.53
2017-11-24T00:54:41.857Z,1008.44
2017-11-24T00:55:50.684Z,1008.38
2017-11-24T00:56:59.512Z,1008.34
2017-11-24T00:58:08.341Z,1008.27
2017-11-24T00:59:17.573Z,1008.3
2017-11-24T01:00:26.404Z,1008.35
2017-11-24T01:01:35.239Z,1008.39
2017-11-24T01:02:44.061Z,1008.35
2017-11-24T01:03:52.890Z,1008.28
2017-11-24T01:05:01.774Z,1008.18
2017-11-24T01:06:10.596Z,1008.17
2017-11-24T01:07:19.425Z,1008.09
2017-11-24T01:08:28.250Z,1008.13
2017-11-24T01:09:37.077Z,1008.12
2017-11-24T01:10:45.905Z,1008.08
2017-11-24T01:11:54.732Z,1008.13
2017-11-24T01:13:03.558Z,1008.07
2017-11-24T01:14:12.386Z,1008.09
2017-11-24T01:15:21.214Z,1008.08
2017-11-24T01:16:30.047Z,1008.08
2017-11-24T01:17:39.161Z,1008.12
2017-11-24T01:18:47.994Z,1008.08
2017-11-24T01:19:57.099Z,1008.02
2017-11-24T01:21:05.928Z,1008.06
2017-11-24T01:22:14.956Z,1008.12
2017-11-24T01:23:23.785Z,1008.09
2017-11-24T01:24:32.613Z,1008.09
2017-11-24T01:25:41.442Z,1008.11
2017-11-24T01:26:50.278Z,1008.09
2017-11-24T01:27:59.157Z,1008.14
2017-11-24T01:29:07.984Z,1008.17
2017-11-24T01:30:16.816Z,1008.16
2017-11-24T01:31:25.641Z,1008.16
2017-11-24T01:32:34.473Z,1008.07
2017-11-24T01:33:43.627Z,1008.05
2017-11-24T01:34:52.455Z,1008.02
2017-11-24T01:36:01.290Z,1008
2017-11-24T01:37:10.385Z,1008.01
2017-11-24T01:38:19.213Z,1008.04
2017-11-24T01:39:28.051Z,1007.98
2017-11-24T01:40:36.872Z,1008.03
2017-11-24T01:41:45.699Z,1008.02
2017-11-24T01:42:54.528Z,1008.03
2017-11-24T01:44:03.358Z,1008.05
2017-11-24T01:45:12.184Z,1008.08
2017-11-24T01:46:21.011Z,1008.14
2017-11-24T01:47:29.839Z,1008.08
2017-11-24T01:48:38.668Z,1008.07
2017-11-24T01:49:47.493Z,1008.01
2017-11-24T01:50:56.474Z,1008
2017-11-24T01:52:05.305Z,1008.02
2017-11-24T01:53:14.131Z,1007.94
2017-11-24T01:54:22.961Z,1007.92
2017-11-24T01:55:32.069Z,1007.94
2017-11-24T01:56:41.099Z,1007.98
2017-11-24T01:57:49.929Z,1007.95
2017-11-24T01:58:58.756Z,1007.9
2017-11-24T02:00:07.586Z,1007.89
2017-11-24T02:01:16.412Z,1007.83
2017-11-24T02:02:25.539Z,1007.83
2017-11-24T02:03:34.365Z,1007.89
2017-11-24T02:04:43.194Z,1007.93
2017-11-24T02:05:52.023Z,1007.96
2017-11-24T02:07:00.872Z,1007.91
2017-11-24T02:08:09.679Z,1007.87
2017-11-24T02:09:18.799Z,1007.81
2017-11-24T02:10:27.632Z,1007.76
2017-11-24T02:11:36.461Z,1007.69
2017-11-24T02:12:45.290Z,1007.65
2017-11-24T02:13:54.120Z,1007.67
2017-11-24T02:15:02.948Z,1007.64
2017-11-24T02:16:11.776Z,1007.64
2017-11-24T02:17:20.605Z,1007.67
2017-11-24T02:18:29.437Z,1007.65
2017-11-24T02:19:38.641Z,1007.68
2017-11-24T02:20:47.744Z,1007.8
2017-11-24T02:21:56.573Z,1007.83
2017-11-24T02:23:05.408Z,1007.79
2017-11-24T02:24:14.285Z,1007.81
2017-11-24T02:25:23.261Z,1007.84
2017-11-24T02:26:32.096Z,1007.82
2017-11-24T02:27:40.934Z,1007.85
2017-11-24T02:28:49.748Z,1007.84
2017-11-24T02:29:58.580Z,1007.9
2017-11-24T02:31:07.722Z,1007.95
2017-11-24T02:32:16.827Z,1007.87
2017-11-24T02:33:25.958Z,1007.82
2017-11-24T02:34:34.786Z,1007.8
2017-11-24T02:35:43.614Z,1007.73
2017-11-24T02:36:52.495Z,1007.67
2017-11-24T02:38:01.324Z,1007.61
2017-11-24T02:39:10.161Z,1007.66
2017-11-24T02:40:18.979Z,1007.75
2017-11-24T02:41:27.812Z,1007.75
2017-11-24T02:42:36.939Z,1007.77
2017-11-24T02:43:45.767Z,1007.77
2017-11-24T02:44:54.599Z,1007.72
2017-11-24T02:46:03.428Z,1007.7
2017-11-24T02:47:12.256Z,1007.67
2017-11-24T02:48:21.235Z,1007.67
2017-11-24T02:49:30.062Z,1007.64
2017-11-24T02:50:38.888Z,1007.63
2017-11-24T02:51:48.010Z,1007.64
2017-11-24T02:52:56.850Z,1007.59
2017-11-24T02:54:05.772Z,1007.59
2017-11-24T02:55:14.599Z,1007.57
2017-11-24T02:56:23.425Z,1007.54
2017-11-24T02:57:32.254Z,1007.47
2017-11-24T02:58:41.084Z,1007.46
2017-11-24T02:59:50.061Z,1007.45
2017-11-24T03:00:59.173Z,1007.39
2017-11-24T03:02:08.286Z,1007.4
2017-11-24T03:03:17.392Z,1007.35
2017-11-24T03:04:26.220Z,1007.32
2017-11-24T03:05:35.148Z,1007.3
2017-11-24T03:06:43.982Z,1007.26
2017-11-24T03:07:52.814Z,1007.27
2017-11-24T03:09:01.637Z,1007.38
2017-11-24T03:10:11.021Z,1007.28
2017-11-24T03:11:19.997Z,1007.32
2017-11-24T03:12:29.105Z,1007.26
2017-11-24T03:13:37.933Z,1007.29
2017-11-24T03:14:46.760Z,1007.21
2017-11-24T03:15:55.587Z,1007.24
2017-11-24T03:17:04.515Z,1007.25
2017-11-24T03:18:13.350Z,1007.31
2017-11-24T03:19:22.170Z,1007.26
2017-11-24T03:20:30.998Z,1007.25
2017-11-24T03:21:39.840Z,1007.25
2017-11-24T03:22:48.653Z,1007.21
2017-11-24T03:23:57.486Z,1007.15
2017-11-24T03:25:06.311Z,1007.11
2017-11-24T03:26:15.138Z,1007.26
2017-11-24T03:27:24.247Z,1007.28
2017-11-24T03:28:33.620Z,1007.24
2017-11-24T03:29:42.435Z,1007.22
2017-11-24T03:30:51.263Z,1007.19
2017-11-24T03:32:00.376Z,1007.23
2017-11-24T03:33:09.203Z,1007.27
2017-11-24T03:34:18.385Z,1007.27
2017-11-24T03:35:27.213Z,1007.24
2017-11-24T03:36:36.045Z,1007.2
2017-11-24T03:37:44.874Z,1007.22
2017-11-24T03:38:53.699Z,1007.22
2017-11-24T03:40:02.527Z,1007.23
2017-11-24T03:41:11.355Z,1007.24
2017-11-24T03:42:20.181Z,1007.34
2017-11-24T03:43:29.010Z,1007.43
2017-11-24T03:44:37.841Z,1007.44
2017-11-24T03:45:46.817Z,1007.51
2017-11-24T03:46:55.652Z,1007.5
2017-11-24T03:48:04.473Z,1007.49
2017-11-24T03:49:13.301Z,1007.49
2017-11-24T03:50:22.131Z,1007.48
2017-11-24T03:51:31.397Z,1007.46
2017-11-24T03:52:40.223Z,1007.5
2017-11-24T03:53:49.056Z,1007.53
2017-11-24T03:54:57.881Z,1007.57
2017-11-24T03:56:06.710Z,1007.59
2017-11-24T03:57:15.737Z,1007.63
2017-11-24T03:58:24.564Z,1007.67
2017-11-24T03:59:33.685Z,1007.64
2017-11-24T04:00:42.514Z,1007.7
2017-11-24T04:01:51.620Z,1007.69
2017-11-24T04:03:00.597Z,1007.75
2017-11-24T04:04:09.428Z,1007.78
2017-11-24T04:05:18.258Z,1007.8
2017-11-24T04:06:27.086Z,1007.77
2017-11-24T04:07:35.915Z,1007.77
2017-11-24T04:08:44.741Z,1007.77
2017-11-24T04:09:53.569Z,1007.84
2017-11-24T04:11:02.393Z,1007.85
2017-11-24T04:12:11.223Z,1007.88
2017-11-24T04:13:20.064Z,1007.9
2017-11-24T04:14:30.099Z,1007.96
2017-11-24T04:15:38.874Z,1007.93
2017-11-24T04:16:47.702Z,1007.92
2017-11-24T04:17:56.530Z,1007.91
2017-11-24T04:19:05.360Z,1007.78
2017-11-24T04:20:14.391Z,1007.71
2017-11-24T04:21:23.222Z,1007.68
2017-11-24T04:22:32.603Z,1007.61
2017-11-24T04:23:41.435Z,1007.59
2017-11-24T04:24:50.543Z,1007.61
2017-11-24T04:25:59.370Z,1007.62
2017-11-24T04:27:08.197Z,1007.61
2017-11-24T04:28:17.031Z,1007.51
2017-11-24T04:29:25.860Z,1007.5
2017-11-24T04:30:34.966Z,1007.47
2017-11-24T04:31:43.847Z,1007.45
2017-11-24T04:32:52.674Z,1007.41
2017-11-24T04:34:01.504Z,1007.38
2017-11-24T04:35:10.336Z,1007.45
2017-11-24T04:36:19.161Z,1007.42
2017-11-24T04:37:28.141Z,1007.49
2017-11-24T04:38:36.969Z,1007.46
2017-11-24T04:39:45.796Z,1007.42
2017-11-24T04:40:54.909Z,1007.39
2017-11-24T04:42:03.736Z,1007.38
2017-11-24T04:43:13.043Z,1007.44
2017-11-24T04:44:21.872Z,1007.46
2017-11-24T04:45:30.701Z,1007.55
2017-11-24T04:46:39.527Z,1007.62
2017-11-24T04:47:48.356Z,1007.65
2017-11-24T04:48:57.287Z,1007.76
2017-11-24T04:50:06.114Z,1007.85
2017-11-24T04:51:14.941Z,1007.91
2017-11-24T04:52:23.780Z,1007.96
2017-11-24T04:53:32.603Z,1007.98
2017-11-24T04:54:41.485Z,1008.08
2017-11-24T04:55:50.310Z,1008.05
2017-11-24T04:56:59.139Z,1007.97
2017-11-24T04:58:07.966Z,1007.83
2017-11-24T04:59:16.794Z,1007.82
2017-11-24T05:00:25.669Z,1007.85
2017-11-24T05:01:34.499Z,1007.89
2017-11-24T05:02:43.328Z,1007.79
2017-11-24T05:03:52.157Z,1007.68
2017-11-24T05:05:00.986Z,1007.57
2017-11-24T05:06:09.913Z,1007.55
2017-11-24T05:07:18.738Z,1007.55
2017-11-24T05:08:27.567Z,1007.44
2017-11-24T05:09:36.398Z,1007.41
2017-11-24T05:10:45.224Z,1007.35
2017-11-24T05:11:54.052Z,1007.35
2017-11-24T05:13:02.877Z,1007.33
2017-11-24T05:14:12.004Z,1007.32
2017-11-24T05:15:20.836Z,1007.38
2017-11-24T05:16:29.661Z,1007.4
2017-11-24T05:17:38.638Z,1007.42
2017-11-24T05:18:47.468Z,1007.44
2017-11-24T05:19:56.293Z,1007.39
2017-11-24T05:21:05.120Z,1007.4
2017-11-24T05:22:13.948Z,1007.35
2017-11-24T05:23:22.930Z,1007.35
2017-11-24T05:24:31.757Z,1007.35
2017-11-24T05:25:40.863Z,1007.27
2017-11-24T05:26:49.697Z,1007.26
2017-11-24T05:27:58.535Z,1007.24
2017-11-24T05:29:07.412Z,1007.24
2017-11-24T05:30:16.242Z,1007.22
2017-11-24T05:31:25.068Z,1007.23
2017-11-24T05:32:33.907Z,1007.21
2017-11-24T05:33:42.726Z,1007.12
2017-11-24T05:34:51.555Z,1007.05
2017-11-24T05:36:00.383Z,1007.05
2017-11-24T05:37:09.220Z,1007
2017-11-24T05:38:18.042Z,1006.96
2017-11-24T05:39:26.871Z,1006.91
2017-11-24T05:40:35.702Z,1006.81
2017-11-24T05:41:44.528Z,1006.79
2017-11-24T05:42:53.358Z,1006.74
2017-11-24T05:44:02.184Z,1006.76
2017-11-24T05:45:11.013Z,1006.76
2017-11-24T05:46:20.242Z,1006.75
2017-11-24T05:47:29.073Z,1006.77
2017-11-24T05:48:37.900Z,1006.72
2017-11-24T05:49:46.728Z,1006.69
2017-11-24T05:50:55.555Z,1006.66
2017-11-24T05:52:04.432Z,1006.62
2017-11-24T05:53:13.310Z,1006.63
2017-11-24T05:54:22.139Z,1006.58
2017-11-24T05:55:31.254Z,1006.59
2017-11-24T05:56:40.082Z,1006.6
2017-11-24T05:57:48.914Z,1006.61
2017-11-24T05:58:58.017Z,1006.61
2017-11-24T06:00:07.134Z,1006.61
2017-11-24T06:01:16.262Z,1006.63
2017-11-24T06:02:25.098Z,1006.65
2017-11-24T06:03:33.975Z,1006.7
2017-11-24T06:04:42.810Z,1006.72
2017-11-24T06:05:51.638Z,1006.74
2017-11-24T06:07:00.468Z,1006.75
2017-11-24T06:08:09.582Z,1006.78
2017-11-24T06:09:18.818Z,1006.83
2017-11-24T06:10:27.647Z,1006.83
2017-11-24T06:11:36.476Z,1006.92
2017-11-24T06:12:45.304Z,1006.97
2017-11-24T06:13:54.419Z,1006.96
2017-11-24T06:15:03.247Z,1007.01
2017-11-24T06:16:12.078Z,1006.99
2017-11-24T06:17:20.908Z,1007.01
2017-11-24T06:18:29.738Z,1006.98
2017-11-24T06:19:38.568Z,1007.03
2017-11-24T06:20:47.546Z,1007.07
2017-11-24T06:21:56.378Z,1007.12
2017-11-24T06:23:05.207Z,1007.16
2017-11-24T06:24:14.037Z,1007.15
2017-11-24T06:25:22.866Z,1007.29
2017-11-24T06:26:31.794Z,1007.31
2017-11-24T06:27:40.625Z,1007.47
2017-11-24T06:28:49.454Z,1007.5
2017-11-24T06:29:58.283Z,1007.53
2017-11-24T06:31:07.395Z,1007.54
2017-11-24T06:32:16.424Z,1007.62
2017-11-24T06:33:25.252Z,1007.63
2017-11-24T06:34:34.083Z,1007.57
2017-11-24T06:35:42.920Z,1007.65
2017-11-24T06:36:51.742Z,1007.61
2017-11-24T06:38:01.151Z,1007.62
2017-11-24T06:39:09.979Z,1007.66
2017-11-24T06:40:18.809Z,1007.63
2017-11-24T06:41:27.638Z,1007.62
2017-11-24T06:42:36.468Z,1007.67
2017-11-24T06:43:45.297Z,1007.65
2017-11-24T06:44:54.126Z,1007.64
2017-11-24T06:46:03.018Z,1007.61
2017-11-24T06:47:11.855Z,1007.56
2017-11-24T06:48:20.971Z,1007.54
2017-11-24T06:49:29.958Z,1007.51
2017-11-24T06:50:38.788Z,1007.48
2017-11-24T06:51:47.634Z,1007.46
2017-11-24T06:52:56.446Z,1007.46
2017-11-24T06:54:05.279Z,1007.4
2017-11-24T06:55:14.205Z,1007.37
2017-11-24T06:56:23.035Z,1007.32
2017-11-24T06:57:31.865Z,1007.21
2017-11-24T06:58:40.692Z,1007.2
2017-11-24T06:59:49.524Z,1007.16
2017-11-24T07:00:58.655Z,1007.11
2017-11-24T07:02:07.480Z,1007.08
2017-11-24T07:03:16.316Z,1007.12
2017-11-24T07:04:25.137Z,1007.11
2017-11-24T07:05:33.965Z,1007.1
2017-11-24T07:06:42.944Z,1007.13
2017-11-24T07:07:52.053Z,1007.14
2017-11-24T07:09:00.885Z,1007.1
2017-11-24T07:10:09.715Z,1007.07
2017-11-24T07:11:18.545Z,1007.1
2017-11-24T07:12:27.475Z,1007.14
2017-11-24T07:13:36.304Z,1007.13
2017-11-24T07:14:45.134Z,1007.15
2017-11-24T07:15:53.963Z,1007.14
2017-11-24T07:17:03.072Z,1007.14
2017-11-24T07:18:11.898Z,1007.12
2017-11-24T07:19:20.724Z,1007.14
2017-11-24T07:20:29.554Z,1007.12
2017-11-24T07:21:38.384Z,1007.14
2017-11-24T07:22:47.223Z,1007.13
2017-11-24T07:23:56.355Z,1007.06
2017-11-24T07:25:05.443Z,1007
2017-11-24T07:26:14.832Z,1007
2017-11-24T07:27:23.663Z,1007.03
2017-11-24T07:28:32.494Z,1007.04
2017-11-24T07:29:41.426Z,1007.12
2017-11-24T07:30:50.261Z,1007.11
2017-11-24T07:31:59.084Z,1007.11
2017-11-24T07:33:07.917Z,1007.11
2017-11-24T07:34:16.753Z,1007.03
2017-11-24T07:35:25.629Z,1006.97
2017-11-24T07:36:34.457Z,1006.86
2017-11-24T07:37:43.293Z,1006.76
2017-11-24T07:38:52.400Z,1006.57
2017-11-24T07:40:01.232Z,1006.44
2017-11-24T07:41:10.067Z,1006.63
2017-11-24T07:42:18.897Z,1006.9
2017-11-24T07:43:28.008Z,1007.18
2017-11-24T07:44:36.842Z,1007.26
2017-11-24T07:45:45.670Z,1007.26
2017-11-24T07:46:54.649Z,1007.19
2017-11-24T07:48:03.756Z,1007.15
2017-11-24T07:49:12.588Z,1007.16
2017-11-24T07:50:21.416Z,1007.26
2017-11-24T07:51:30.248Z,1007.26
2017-11-24T07:52:39.080Z,1007.3
2017-11-24T07:53:47.904Z,1007.28
2017-11-24T07:54:56.734Z,1007.24
2017-11-24T07:56:05.564Z,1007.21
2017-11-24T07:57:14.395Z,1007.2
2017-11-24T07:58:23.508Z,1007.26
2017-11-24T07:59:32.331Z,1007.29
2017-11-24T08:00:41.161Z,1007.29
2017-11-24T08:01:49.990Z,1007.28
2017-11-24T08:02:58.820Z,1007.28
2017-11-24T08:04:07.649Z,1007.34
2017-11-24T08:05:16.755Z,1007.37
2017-11-24T08:06:25.584Z,1007.41
2017-11-24T08:07:34.411Z,1007.45
2017-11-24T08:08:43.243Z,1007.45
2017-11-24T08:09:52.168Z,1007.44
2017-11-24T08:11:01.000Z,1007.46
2017-11-24T08:12:09.841Z,1007.49
2017-11-24T08:13:18.663Z,1007.46
2017-11-24T08:14:27.491Z,1007.51
2017-11-24T08:15:36.571Z,1007.49
2017-11-24T08:16:45.400Z,1007.48
2017-11-24T08:17:54.229Z,1007.53
2017-11-24T08:19:03.064Z,1007.6
2017-11-24T08:20:11.888Z,1007.62
2017-11-24T08:21:21.018Z,1007.64
2017-11-24T08:22:29.844Z,1007.69
2017-11-24T08:23:38.681Z,1007.71
2017-11-24T08:24:47.505Z,1007.67
2017-11-24T08:25:56.333Z,1007.65
2017-11-24T08:27:05.313Z,1007.68
2017-11-24T08:28:14.139Z,1007.65
2017-11-24T08:29:22.969Z,1007.64
2017-11-24T08:30:31.797Z,1007.65
2017-11-24T08:31:40.631Z,1007.59
2017-11-24T08:32:49.554Z,1007.51
2017-11-24T08:33:58.386Z,1007.47
2017-11-24T08:35:07.490Z,1007.53
2017-11-24T08:36:16.321Z,1007.52
2017-11-24T08:37:25.160Z,1007.54
2017-11-24T08:38:33.988Z,1007.51
2017-11-24T08:39:42.825Z,1007.54
2017-11-24T08:40:51.647Z,1007.57
2017-11-24T08:42:00.478Z,1007.54
2017-11-24T08:43:09.871Z,1007.57
2017-11-24T08:44:19.152Z,1007.58
2017-11-24T08:45:27.980Z,1007.57
2017-11-24T08:46:36.810Z,1007.61
2017-11-24T08:47:45.638Z,1007.6
2017-11-24T08:48:54.477Z,1007.58
2017-11-24T08:50:03.453Z,1007.6
2017-11-24T08:51:12.284Z,1007.56
2017-11-24T08:52:21.112Z,1007.57
2017-11-24T08:53:29.948Z,1007.54
2017-11-24T08:54:38.773Z,1007.6
2017-11-24T08:55:47.608Z,1007.56
2017-11-24T08:56:56.440Z,1007.55
2017-11-24T08:58:05.262Z,1007.52
2017-11-24T08:59:14.090Z,1007.54
2017-11-24T09:00:22.926Z,1007.53
2017-11-24T09:01:31.805Z,1007.55
2017-11-24T09:02:40.633Z,1007.59
2017-11-24T09:03:49.462Z,1007.57
2017-11-24T09:04:58.290Z,1007.62
2017-11-24T09:06:07.121Z,1007.65
2017-11-24T09:07:15.952Z,1007.64
2017-11-24T09:08:25.064Z,1007.71
2017-11-24T09:09:34.171Z,1007.78
2017-11-24T09:10:43.288Z,1007.79
2017-11-24T09:11:52.117Z,1007.78
2017-11-24T09:13:01.046Z,1007.81
2017-11-24T09:14:09.878Z,1007.76
2017-11-24T09:15:18.709Z,1007.76
2017-11-24T09:16:27.539Z,1007.69
2017-11-24T09:17:36.371Z,1007.67
2017-11-24T09:18:45.451Z,1007.62
2017-11-24T09:19:54.279Z,1007.63
2017-11-24T09:21:03.112Z,1007.68
2017-11-24T09:22:12.222Z,1007.72
2017-11-24T09:23:21.049Z,1007.75
2017-11-24T09:24:29.927Z,1007.79
2017-11-24T09:25:38.759Z,1007.85
2017-11-24T09:26:47.588Z,1007.87
2017-11-24T09:27:56.420Z,1007.89
2017-11-24T09:29:05.249Z,1007.8
2017-11-24T09:30:14.430Z,1007.81
2017-11-24T09:31:23.260Z,1007.83
2017-11-24T09:32:32.088Z,1007.88
2017-11-24T09:33:41.198Z,1007.89
2017-11-24T09:34:50.028Z,1007.95
2017-11-24T09:35:58.956Z,1007.96
2017-11-24T09:37:07.790Z,1007.89
2017-11-24T09:38:16.620Z,1007.86
2017-11-24T09:39:25.454Z,1007.82
2017-11-24T09:40:34.284Z,1007.83
2017-11-24T09:41:43.170Z,1007.85
2017-11-24T09:42:51.996Z,1007.89
2017-11-24T09:44:00.825Z,1007.91
2017-11-24T09:45:09.655Z,1007.87
2017-11-24T09:46:18.489Z,1007.89
2017-11-24T09:47:27.597Z,1007.94
2017-11-24T09:48:36.427Z,1008
2017-11-24T09:49:45.537Z,1007.96
2017-11-24T09:50:54.645Z,1007.91
2017-11-24T09:52:03.476Z,1007.92
2017-11-24T09:53:12.611Z,1007.95
2017-11-24T09:54:21.441Z,1007.97
2017-11-24T09:55:30.272Z,1008.02
2017-11-24T09:56:39.381Z,1008.08
2017-11-24T09:57:48.211Z,1008.11
2017-11-24T09:58:57.089Z,1008.19
2017-11-24T10:00:05.924Z,1008.19
2017-11-24T10:01:15.042Z,1008.21
2017-11-24T10:02:23.873Z,1008.28
2017-11-24T10:03:32.704Z,1008.31
2017-11-24T10:04:41.687Z,1008.28
2017-11-24T10:05:50.521Z,1008.27
2017-11-24T10:06:59.346Z,1008.27
2017-11-24T10:08:08.180Z,1008.26
2017-11-24T10:09:17.013Z,1008.24
2017-11-24T10:10:25.997Z,1008.25
2017-11-24T10:11:34.829Z,1008.21
2017-11-24T10:12:43.661Z,1008.23
2017-11-24T10:13:52.490Z,1008.27
2017-11-24T10:15:01.321Z,1008.28
2017-11-24T10:16:10.202Z,1008.34
2017-11-24T10:17:19.032Z,1008.37
2017-11-24T10:18:27.867Z,1008.39
2017-11-24T10:19:36.700Z,1008.45
2017-11-24T10:20:45.535Z,1008.44
2017-11-24T10:21:54.691Z,1008.44
2017-11-24T10:23:03.522Z,1008.49
2017-11-24T10:24:12.355Z,1008.51
2017-11-24T10:25:21.186Z,1008.47
2017-11-24T10:26:30.018Z,1008.49
2017-11-24T10:27:39.160Z,1008.53
2017-11-24T10:28:47.982Z,1008.54
2017-11-24T10:29:56.812Z,1008.55
2017-11-24T10:31:05.934Z,1008.55
2017-11-24T10:32:15.141Z,1008.54
2017-11-24T10:33:24.128Z,1008.6
2017-11-24T10:34:32.951Z,1008.64
2017-11-24T10:35:41.781Z,1008.61
2017-11-24T10:36:50.615Z,1008.63
2017-11-24T10:37:59.726Z,1008.62
2017-11-24T10:39:08.557Z,1008.61
2017-11-24T10:40:17.684Z,1008.73
2017-11-24T10:41:26.515Z,1008.66
2017-11-24T10:42:35.346Z,1008.7
2017-11-24T10:43:44.177Z,1008.69
2017-11-24T10:44:53.286Z,1008.73
2017-11-24T10:46:02.119Z,1008.74
2017-11-24T10:47:10.944Z,1008.7
2017-11-24T10:48:19.775Z,1008.7
2017-11-24T10:49:28.606Z,1008.72
2017-11-24T10:50:37.486Z,1008.69
2017-11-24T10:51:46.321Z,1008.72
2017-11-24T10:52:55.150Z,1008.7
2017-11-24T10:54:03.980Z,1008.74
2017-11-24T10:55:12.813Z,1008.77
2017-11-24T10:56:21.744Z,1008.76
2017-11-24T10:57:30.583Z,1008.8
2017-11-24T10:58:39.693Z,1008.79
2017-11-24T10:59:48.813Z,1008.72
2017-11-24T11:00:57.644Z,1008.69
2017-11-24T11:02:06.727Z,1008.64
2017-11-24T11:03:15.515Z,1008.65
2017-11-24T11:04:24.340Z,1008.63
2017-11-24T11:05:33.170Z,1008.62
2017-11-24T11:06:42.006Z,1008.59
2017-11-24T11:07:50.882Z,1008.52
2017-11-24T11:08:59.712Z,1008.51
2017-11-24T11:10:08.544Z,1008.55
2017-11-24T11:11:17.374Z,1008.48
2017-11-24T11:12:26.482Z,1008.49
2017-11-24T11:13:35.314Z,1008.55
2017-11-24T11:14:44.146Z,1008.67
2017-11-24T11:15:52.984Z,1008.71
2017-11-24T11:17:02.089Z,1008.76
2017-11-24T11:18:10.929Z,1008.81
2017-11-24T11:19:19.862Z,1008.84
2017-11-24T11:20:28.970Z,1008.87
2017-11-24T11:21:37.802Z,1008.88
2017-11-24T11:22:46.640Z,1008.86
2017-11-24T11:23:55.467Z,1008.87
2017-11-24T11:25:04.301Z,1008.93
2017-11-24T11:26:13.134Z,1008.99
2017-11-24T11:27:21.970Z,1008.97
2017-11-24T11:28:30.795Z,1009
2017-11-24T11:29:39.623Z,1009.01
2017-11-24T11:30:48.553Z,1008.98
2017-11-24T11:31:57.385Z,1008.99
2017-11-24T11:33:06.223Z,1008.98
2017-11-24T11:34:15.047Z,1008.99
2017-11-24T11:35:23.875Z,1009.03
2017-11-24T11:36:32.858Z,1008.99
2017-11-24T11:37:41.690Z,1009.02
2017-11-24T11:38:50.520Z,1009.06
2017-11-24T11:39:59.648Z,1009.04
2017-11-24T11:41:08.760Z,1009.03
2017-11-24T11:42:17.594Z,1009.02
2017-11-24T11:43:26.708Z,1009.01
2017-11-24T11:44:35.823Z,1009.03
2017-11-24T11:45:44.654Z,1009.02
2017-11-24T11:46:53.787Z,1008.99
2017-11-24T11:48:02.997Z,1008.99
2017-11-24T11:49:11.829Z,1008.99
2017-11-24T11:50:20.661Z,1009
2017-11-24T11:51:29.492Z,1009.01
2017-11-24T11:52:38.322Z,1008.97
2017-11-24T11:53:47.251Z,1008.99
2017-11-24T11:54:56.083Z,1008.96
2017-11-24T11:56:05.499Z,1008.99
2017-11-24T11:57:14.617Z,1009.01
2017-11-24T11:58:23.446Z,1008.95
2017-11-24T11:59:32.326Z,1008.99
2017-11-24T12:00:41.162Z,1009
2017-11-24T12:01:49.995Z,1009.04
2017-11-24T12:02:59.097Z,1008.99
2017-11-24T12:04:07.924Z,1009.06
2017-11-24T12:05:17.083Z,1009.11
2017-11-24T12:06:25.912Z,1009.11
2017-11-24T12:07:35.019Z,1009.14
2017-11-24T12:08:43.850Z,1009.09
2017-11-24T12:09:52.680Z,1009.06
2017-11-24T12:11:01.974Z,1009.04
2017-11-24T12:12:10.811Z,1009.07
2017-11-24T12:13:19.638Z,1009.09
2017-11-24T12:14:28.469Z,1009.09
2017-11-24T12:15:37.304Z,1009.11
2017-11-24T12:16:46.334Z,1009.13
2017-11-24T12:17:55.162Z,1009.15
2017-11-24T12:19:04.273Z,1009.19
2017-11-24T12:20:13.101Z,1009.18
2017-11-24T12:21:21.936Z,1009.22
2017-11-24T12:22:31.041Z,1009.16
2017-11-24T12:23:39.875Z,1009.22
2017-11-24T12:24:48.708Z,1009.24
2017-11-24T12:25:58.102Z,1009.25
2017-11-24T12:27:06.934Z,1009.22
2017-11-24T12:28:16.114Z,1009.27
2017-11-24T12:29:24.944Z,1009.26
2017-11-24T12:30:33.774Z,1009.28
2017-11-24T12:31:42.607Z,1009.3
2017-11-24T12:32:52.022Z,1009.27
2017-11-24T12:34:00.948Z,1009.3
2017-11-24T12:35:09.781Z,1009.28
2017-11-24T12:36:18.612Z,1009.31
2017-11-24T12:37:27.443Z,1009.35
2017-11-24T12:38:36.556Z,1009.32
2017-11-24T12:39:45.637Z,1009.3
2017-11-24T12:40:54.464Z,1009.35
2017-11-24T12:42:03.317Z,1009.35
2017-11-24T12:43:12.425Z,1009.34
2017-11-24T12:44:21.257Z,1009.37
2017-11-24T12:45:30.187Z,1009.35
2017-11-24T12:46:39.310Z,1009.41
2017-11-24T12:47:48.154Z,1009.37
2017-11-24T12:48:56.965Z,1009.37
2017-11-24T12:50:05.795Z,1009.4
2017-11-24T12:51:14.675Z,1009.35
2017-11-24T12:52:23.513Z,1009.4
2017-11-24T12:53:32.621Z,1009.42
2017-11-24T12:54:41.449Z,1009.42
2017-11-24T12:55:50.281Z,1009.44
2017-11-24T12:56:59.169Z,1009.51
2017-11-24T12:58:08.000Z,1009.52
2017-11-24T12:59:17.101Z,1009.51
2017-11-24T13:00:25.933Z,1009.5
2017-11-24T13:01:34.762Z,1009.5
2017-11-24T13:02:43.868Z,1009.5
2017-11-24T13:03:52.700Z,1009.54
2017-11-24T13:05:01.529Z,1009.51
2017-11-24T13:06:10.360Z,1009.48
2017-11-24T13:07:19.190Z,1009.58
2017-11-24T13:08:28.423Z,1009.57
2017-11-24T13:09:37.252Z,1009.6
2017-11-24T13:10:46.082Z,1009.64
2017-11-24T13:11:54.910Z,1009.65
2017-11-24T13:13:03.739Z,1009.58
2017-11-24T13:14:12.872Z,1009.63
2017-11-24T13:15:21.979Z,1009.58
2017-11-24T13:16:31.086Z,1009.59
2017-11-24T13:17:39.917Z,1009.59
2017-11-24T13:18:48.747Z,1009.56
2017-11-24T13:19:57.576Z,1009.62
2017-11-24T13:21:06.408Z,1009.56
2017-11-24T13:22:15.239Z,1009.57
2017-11-24T13:23:24.078Z,1009.49
2017-11-24T13:24:32.900Z,1009.51
2017-11-24T13:25:41.881Z,1009.43
2017-11-24T13:26:50.710Z,1009.44
2017-11-24T13:27:59.541Z,1009.37
2017-11-24T13:29:08.378Z,1009.45
2017-11-24T13:30:17.203Z,1009.44
2017-11-24T13:31:26.188Z,1009.46
2017-11-24T13:32:35.018Z,1009.52
2017-11-24T13:33:43.850Z,1009.47
2017-11-24T13:34:52.678Z,1009.54
2017-11-24T13:36:01.510Z,1009.54
2017-11-24T13:37:10.593Z,1009.58
2017-11-24T13:38:19.425Z,1009.58
2017-11-24T13:39:28.256Z,1009.56
2017-11-24T13:40:37.086Z,1009.59
2017-11-24T13:41:45.920Z,1009.57
2017-11-24T13:42:54.749Z,1009.6
2017-11-24T13:44:03.580Z,1009.59
2017-11-24T13:45:12.410Z,1009.61
2017-11-24T13:46:21.517Z,1009.58
2017-11-24T13:47:30.349Z,1009.57
2017-11-24T13:48:39.278Z,1009.62
2017-11-24T13:49:48.109Z,1009.65
2017-11-24T13:50:56.940Z,1009.69
2017-11-24T13:52:05.773Z,1009.7
2017-11-24T13:53:14.892Z,1009.75
2017-11-24T13:54:23.774Z,1009.77
2017-11-24T13:55:32.604Z,1009.8
2017-11-24T13:56:41.438Z,1009.82